TAX06AT LPPR-LECO
Flight info
| Callsign | TAX06AT |
|---|---|
| Flight time | 0h 30m |
| Altitude | 22000 |
| Route | TURON P600 STG N728 KORAV |
| Aircraft | A321/M-SDE3FGHIRWY/LB1 |
Departure
| Time | 2026-05-05 10:24 |
|---|---|
| Airport | Francisco de Sá Carneiro Airport (LPPR) |
Arrival
| Time | 2026-05-05 10:55 |
|---|---|
| Airport | A Coruña Airport (LECO) |
| Time | Latitude | Longitude | Altitude | Speed | Heading |
|---|---|---|---|---|---|
| 2026-05-05 09:50 | 41.23639 | -8.67246 | 245 ft | 0 kts | 79° |
| 2026-05-05 10:16 | 41.23636 | -8.67269 | 245 ft | 4 kts | 79° |
| 2026-05-05 10:16 | 41.23631 | -8.67298 | 243 ft | 4 kts | 88° |
| 2026-05-05 10:16 | 41.23637 | -8.67327 | 242 ft | 4 kts | 146° |
| 2026-05-05 10:16 | 41.23662 | -8.67339 | 242 ft | 4 kts | 169° |
| 2026-05-05 10:17 | 41.23669 | -8.67341 | 242 ft | 0 kts | 169° |
| 2026-05-05 10:21 | 41.23656 | -8.67338 | 242 ft | 4 kts | 169° |
| 2026-05-05 10:21 | 41.23614 | -8.67331 | 242 ft | 9 kts | 181° |
| 2026-05-05 10:21 | 41.23560 | -8.67355 | 241 ft | 8 kts | 207° |
| 2026-05-05 10:21 | 41.23542 | -8.67367 | 241 ft | 2 kts | 207° |
| 2026-05-05 10:22 | 41.23515 | -8.67381 | 240 ft | 9 kts | 193° |
| 2026-05-05 10:22 | 41.23441 | -8.67374 | 240 ft | 10 kts | 171° |
| 2026-05-05 10:22 | 41.23374 | -8.67364 | 239 ft | 10 kts | 186° |
| 2026-05-05 10:22 | 41.23332 | -8.67440 | 237 ft | 11 kts | 251° |
| 2026-05-05 10:23 | 41.23316 | -8.67543 | 238 ft | 11 kts | 260° |
| 2026-05-05 10:23 | 41.23301 | -8.67643 | 242 ft | 11 kts | 261° |
| 2026-05-05 10:23 | 41.23345 | -8.67740 | 238 ft | 15 kts | 342° |
| 2026-05-05 10:23 | 41.23470 | -8.67774 | 238 ft | 31 kts | 349° |
| 2026-05-05 10:24 | 41.23943 | -8.67900 | 221 ft | 102 kts | 349° |
| 2026-05-05 10:24 | 41.24826 | -8.68130 | 199 ft | 153 kts | 349° |
| 2026-05-05 10:24 | 41.25955 | -8.68417 | 551 ft | 165 kts | 347° |
| 2026-05-05 10:24 | 41.27074 | -8.68711 | 1239 ft | 163 kts | 348° |
| 2026-05-05 10:25 | 41.28185 | -8.69019 | 1831 ft | 167 kts | 347° |
| 2026-05-05 10:25 | 41.29406 | -8.69351 | 2012 ft | 192 kts | 347° |
| 2026-05-05 10:25 | 41.30765 | -8.69707 | 2214 ft | 213 kts | 348° |
| 2026-05-05 10:25 | 41.32309 | -8.70108 | 2460 ft | 239 kts | 348° |
| 2026-05-05 10:26 | 41.34016 | -8.70553 | 3097 ft | 251 kts | 348° |
| 2026-05-05 10:26 | 41.35724 | -8.70999 | 3944 ft | 255 kts | 348° |
| 2026-05-05 10:26 | 41.37475 | -8.71457 | 4881 ft | 257 kts | 347° |
| 2026-05-05 10:26 | 41.39236 | -8.71917 | 5845 ft | 258 kts | 348° |
| 2026-05-05 10:27 | 41.40999 | -8.72378 | 6775 ft | 259 kts | 348° |
| 2026-05-05 10:27 | 41.42806 | -8.72565 | 7588 ft | 263 kts | 1° |
| 2026-05-05 10:27 | 41.44633 | -8.72207 | 8424 ft | 267 kts | 8° |
| 2026-05-05 10:27 | 41.46463 | -8.71736 | 9265 ft | 269 kts | 8° |
| 2026-05-05 10:28 | 41.48312 | -8.71267 | 10064 ft | 272 kts | 8° |
| 2026-05-05 10:28 | 41.50218 | -8.70786 | 10461 ft | 289 kts | 8° |
| 2026-05-05 10:28 | 41.52271 | -8.70272 | 10623 ft | 312 kts | 8° |
| 2026-05-05 10:28 | 41.54480 | -8.69719 | 10761 ft | 335 kts | 8° |
| 2026-05-05 10:29 | 41.56836 | -8.69127 | 11061 ft | 350 kts | 8° |
| 2026-05-05 10:29 | 41.59254 | -8.68513 | 11681 ft | 356 kts | 8° |
| 2026-05-05 10:29 | 41.61700 | -8.67888 | 12373 ft | 359 kts | 8° |
| 2026-05-05 10:29 | 41.64164 | -8.67259 | 13065 ft | 363 kts | 8° |
| 2026-05-05 10:30 | 41.66648 | -8.66628 | 13749 ft | 366 kts | 8° |
| 2026-05-05 10:30 | 41.69160 | -8.65990 | 14361 ft | 369 kts | 8° |
| 2026-05-05 10:30 | 41.71689 | -8.65346 | 14965 ft | 372 kts | 8° |
| 2026-05-05 10:30 | 41.74245 | -8.64674 | 15548 ft | 376 kts | 9° |
| 2026-05-05 10:31 | 41.76815 | -8.63937 | 16107 ft | 379 kts | 9° |
| 2026-05-05 10:31 | 41.79406 | -8.63151 | 16655 ft | 383 kts | 10° |
| 2026-05-05 10:31 | 41.82009 | -8.62340 | 17210 ft | 387 kts | 10° |
| 2026-05-05 10:31 | 41.84647 | -8.61513 | 17765 ft | 390 kts | 10° |
| 2026-05-05 10:32 | 41.87300 | -8.60686 | 18318 ft | 393 kts | 9° |
| 2026-05-05 10:32 | 41.89977 | -8.59858 | 18790 ft | 397 kts | 9° |
| 2026-05-05 10:32 | 41.92680 | -8.59026 | 19291 ft | 399 kts | 9° |
| 2026-05-05 10:32 | 41.95358 | -8.58206 | 19816 ft | 401 kts | 9° |
| 2026-05-05 10:33 | 41.98091 | -8.57370 | 20337 ft | 404 kts | 9° |
| 2026-05-05 10:33 | 42.00836 | -8.56531 | 20845 ft | 406 kts | 9° |
| 2026-05-05 10:33 | 42.03602 | -8.55688 | 21367 ft | 408 kts | 9° |
| 2026-05-05 10:33 | 42.06378 | -8.54840 | 21869 ft | 410 kts | 9° |
| 2026-05-05 10:34 | 42.09169 | -8.53984 | 22067 ft | 412 kts | 10° |
| 2026-05-05 10:34 | 42.12008 | -8.53111 | 22083 ft | 422 kts | 10° |
| 2026-05-05 10:34 | 42.14884 | -8.52225 | 22079 ft | 425 kts | 10° |
| 2026-05-05 10:34 | 42.17772 | -8.51333 | 22079 ft | 426 kts | 10° |
| 2026-05-05 10:35 | 42.20663 | -8.50441 | 22084 ft | 426 kts | 10° |
| 2026-05-05 10:35 | 42.23552 | -8.49549 | 22083 ft | 426 kts | 10° |
| 2026-05-05 10:35 | 42.26440 | -8.48657 | 22083 ft | 426 kts | 10° |
| 2026-05-05 10:35 | 42.29332 | -8.47765 | 22086 ft | 426 kts | 10° |
| 2026-05-05 10:36 | 42.32227 | -8.46871 | 22082 ft | 426 kts | 10° |
| 2026-05-05 10:36 | 42.35116 | -8.45982 | 22084 ft | 426 kts | 10° |
| 2026-05-05 10:36 | 42.38006 | -8.45091 | 22080 ft | 426 kts | 10° |
| 2026-05-05 10:36 | 42.40893 | -8.44196 | 22077 ft | 425 kts | 10° |
| 2026-05-05 10:37 | 42.43777 | -8.43302 | 22074 ft | 425 kts | 10° |
| 2026-05-05 10:37 | 42.46660 | -8.42409 | 22070 ft | 425 kts | 10° |
| 2026-05-05 10:37 | 42.49537 | -8.41516 | 22069 ft | 425 kts | 10° |
| 2026-05-05 10:37 | 42.52424 | -8.40618 | 22068 ft | 425 kts | 10° |
| 2026-05-05 10:38 | 42.55308 | -8.39717 | 22067 ft | 425 kts | 10° |
| 2026-05-05 10:38 | 42.58213 | -8.38810 | 21672 ft | 432 kts | 10° |
| 2026-05-05 10:38 | 42.61109 | -8.37904 | 20870 ft | 430 kts | 10° |
| 2026-05-05 10:38 | 42.64006 | -8.36991 | 20172 ft | 425 kts | 10° |
| 2026-05-05 10:39 | 42.66868 | -8.36088 | 19470 ft | 420 kts | 10° |
| 2026-05-05 10:39 | 42.69701 | -8.35197 | 18793 ft | 415 kts | 10° |
| 2026-05-05 10:39 | 42.72498 | -8.34320 | 18112 ft | 412 kts | 10° |
| 2026-05-05 10:39 | 42.75275 | -8.33452 | 17426 ft | 406 kts | 10° |
| 2026-05-05 10:40 | 42.78009 | -8.32598 | 16812 ft | 400 kts | 10° |
| 2026-05-05 10:40 | 42.80703 | -8.31758 | 16205 ft | 394 kts | 10° |
| 2026-05-05 10:40 | 42.83352 | -8.30929 | 15616 ft | 388 kts | 11° |
| 2026-05-05 10:40 | 42.85968 | -8.30104 | 15052 ft | 383 kts | 11° |
| 2026-05-05 10:41 | 42.88554 | -8.29287 | 14489 ft | 378 kts | 11° |
| 2026-05-05 10:41 | 42.91101 | -8.28485 | 13982 ft | 375 kts | 11° |
| 2026-05-05 10:41 | 42.93635 | -8.27688 | 13407 ft | 372 kts | 11° |
| 2026-05-05 10:41 | 42.96140 | -8.26899 | 12895 ft | 367 kts | 11° |
| 2026-05-05 10:42 | 43.01056 | -8.25340 | 11867 ft | 359 kts | 11° |
| 2026-05-05 10:42 | 43.03480 | -8.24574 | 11386 ft | 356 kts | 11° |
| 2026-05-05 10:42 | 43.05846 | -8.23827 | 11229 ft | 341 kts | 11° |
| 2026-05-05 10:43 | 43.08112 | -8.23108 | 11112 ft | 327 kts | 11° |
| 2026-05-05 10:43 | 43.10253 | -8.22424 | 10991 ft | 314 kts | 11° |
| 2026-05-05 10:43 | 43.12379 | -8.21745 | 10862 ft | 306 kts | 11° |
| 2026-05-05 10:43 | 43.14400 | -8.21103 | 10746 ft | 299 kts | 11° |
| 2026-05-05 10:44 | 43.16419 | -8.20462 | 10618 ft | 289 kts | 11° |
| 2026-05-05 10:44 | 43.18330 | -8.19854 | 10441 ft | 283 kts | 11° |
| 2026-05-05 10:44 | 43.20222 | -8.19250 | 10356 ft | 279 kts | 11° |
| 2026-05-05 10:44 | 43.22116 | -8.18649 | 10289 ft | 278 kts | 11° |
| 2026-05-05 10:45 | 43.24003 | -8.18049 | 10181 ft | 278 kts | 11° |
| 2026-05-05 10:45 | 43.25894 | -8.17525 | 10059 ft | 276 kts | 2° |
| 2026-05-05 10:45 | 43.27789 | -8.17825 | 9565 ft | 276 kts | 338° |
| 2026-05-05 10:45 | 43.29458 | -8.19092 | 9102 ft | 274 kts | 327° |
| 2026-05-05 10:46 | 43.31197 | -8.20031 | 8817 ft | 270 kts | 355° |
| 2026-05-05 10:46 | 43.33023 | -8.19499 | 8515 ft | 275 kts | 26° |
| 2026-05-05 10:46 | 43.34636 | -8.18067 | 7777 ft | 274 kts | 27° |
| 2026-05-05 10:46 | 43.36327 | -8.16952 | 7153 ft | 265 kts | 19° |
| 2026-05-05 10:47 | 43.38010 | -8.16092 | 6705 ft | 251 kts | 17° |
| 2026-05-05 10:47 | 43.39618 | -8.15314 | 6294 ft | 238 kts | 16° |
| 2026-05-05 10:47 | 43.41132 | -8.14555 | 5861 ft | 226 kts | 17° |
| 2026-05-05 10:47 | 43.42586 | -8.13889 | 5487 ft | 214 kts | 7° |
| 2026-05-05 10:48 | 43.44054 | -8.13783 | 5150 ft | 210 kts | 352° |
| 2026-05-05 10:48 | 43.45464 | -8.14240 | 4802 ft | 207 kts | 336° |
| 2026-05-05 10:48 | 43.46721 | -8.15174 | 4505 ft | 203 kts | 325° |
| 2026-05-05 10:48 | 43.47828 | -8.16248 | 4463 ft | 185 kts | 321° |
| 2026-05-05 10:49 | 43.48759 | -8.17341 | 4407 ft | 168 kts | 315° |
| 2026-05-05 10:49 | 43.49511 | -8.18488 | 4341 ft | 157 kts | 299° |
| 2026-05-05 10:49 | 43.49809 | -8.19893 | 4301 ft | 153 kts | 273° |
| 2026-05-05 10:49 | 43.49564 | -8.21318 | 4248 ft | 157 kts | 244° |
| 2026-05-05 10:50 | 43.48799 | -8.22411 | 4194 ft | 162 kts | 214° |
| 2026-05-05 10:50 | 43.47827 | -8.23210 | 4137 ft | 163 kts | 214° |
| 2026-05-05 10:50 | 43.46853 | -8.24012 | 3972 ft | 163 kts | 214° |
| 2026-05-05 10:50 | 43.45887 | -8.24808 | 3769 ft | 161 kts | 216° |
| 2026-05-05 10:51 | 43.44936 | -8.25594 | 3562 ft | 160 kts | 215° |
| 2026-05-05 10:51 | 43.43992 | -8.26372 | 3353 ft | 157 kts | 215° |
| 2026-05-05 10:51 | 43.43049 | -8.27151 | 3138 ft | 159 kts | 215° |
| 2026-05-05 10:51 | 43.42111 | -8.27924 | 2923 ft | 156 kts | 216° |
| 2026-05-05 10:52 | 43.41180 | -8.28692 | 2709 ft | 156 kts | 215° |
| 2026-05-05 10:52 | 43.40262 | -8.29450 | 2525 ft | 156 kts | 213° |
| 2026-05-05 10:52 | 43.39333 | -8.30215 | 2291 ft | 154 kts | 214° |
| 2026-05-05 10:52 | 43.38419 | -8.30968 | 2102 ft | 153 kts | 214° |
| 2026-05-05 10:53 | 43.37526 | -8.31703 | 1883 ft | 145 kts | 213° |
| 2026-05-05 10:53 | 43.36669 | -8.32409 | 1669 ft | 144 kts | 213° |
| 2026-05-05 10:53 | 43.35807 | -8.33114 | 1482 ft | 144 kts | 212° |
| 2026-05-05 10:53 | 43.34945 | -8.33821 | 1302 ft | 145 kts | 213° |
| 2026-05-05 10:54 | 43.34085 | -8.34548 | 1103 ft | 146 kts | 214° |
| 2026-05-05 10:54 | 43.33216 | -8.35241 | 866 ft | 142 kts | 216° |
| 2026-05-05 10:54 | 43.32374 | -8.35954 | 683 ft | 144 kts | 213° |
| 2026-05-05 10:54 | 43.31522 | -8.36638 | 467 ft | 141 kts | 214° |
| 2026-05-05 10:55 | 43.30680 | -8.37333 | 288 ft | 139 kts | 213° |
| 2026-05-05 10:55 | 43.30019 | -8.37878 | 274 ft | 48 kts | 211° |
| 2026-05-05 10:55 | 43.29954 | -8.37941 | 275 ft | 13 kts | 228° |
| 2026-05-05 10:55 | 43.29991 | -8.38055 | 275 ft | 10 kts | 314° |
| 2026-05-05 10:56 | 43.30024 | -8.38076 | 274 ft | 4 kts | 355° |
| 2026-05-05 10:56 | 43.30050 | -8.38075 | 274 ft | 4 kts | 2° |
| 2026-05-05 10:56 | 43.30076 | -8.38068 | 274 ft | 6 kts | 14° |
| 2026-05-05 10:56 | 43.30108 | -8.38048 | 274 ft | 4 kts | 21° |
| 2026-05-05 10:57 | 43.30136 | -8.38056 | 274 ft | 3 kts | 328° |
| 2026-05-05 10:57 | 43.30149 | -8.38067 | 274 ft | 2 kts | 324° |
| 2026-05-05 10:57 | 43.30159 | -8.38076 | 274 ft | 1 kts | 326° |
| 2026-05-05 10:57 | 43.30161 | -8.38078 | 274 ft | 0 kts | 325° |